Accueil
METAR-TAF:

METAR-TAF

Aéroports :

Aéroport de Podgorica

Podgorica, Monténégro

latitude: 42-26N, longitude: 019-17E, altitude: 53 m

Observation

Le bulletin a été fait il y a 19 minutes, à 14:30 UTC
Vent 9 kt de sud/sud-ouest, variant entre sud-est et ouest/sud-ouest
Température 28°C
Humidité 45%
Pression 1014 hPa
Visibilité 10 km ou plus
Quelques nuages à une hauteur de 3000 ft

METAR: LYPG 141430Z 20009KT 140V240 9999 FEW030 28/15 Q1014 NOSIG

Heure: 16:49 (14:49 UTC)

Prévision

Le bulletin a été fait il y a 3 heures et 49 minutes, à 11:00 UTC
Prévision valable du 14 à 12 UTC au 15 à 12 UTC
Vent 8 kt de sud/sud-est
Visibilité 10 km ou plus
Nuages épars à une hauteur de 3000 ft

TAF: LYPG 141100Z 1412/1512 16008KT 9999 SCT030 TX29/1413Z TN16/1503Z

Observations et prévisions météorologiques de plus de 4000 aéroports (messages METAR et TAF).

Les stations disponibles sont représentées par des disques jaunes et rouges sur la carte.

Passer la souris dessus pour voir le nom de la station.

Cliquer dessus pour voir les observations et prévisions météorologiques.

Pour changer de carte: cliquez sur les boutons verts avec une croix noire pour zoomer, sur le bouton vert avec un tiret pour effectuer un zoom arrière, ou sur les flèches vertes pour les cartes adjacentes.


METAR-TAF: